sensor_id;sensor_type;location;lat;lon;timestamp;temperature;humidity
12817;DHT22;6473;51.552;6.716;2023-11-25T00:00:53;2.80;99.90
12817;DHT22;6473;51.552;6.716;2023-11-25T00:03:20;2.90;99.90
12817;DHT22;6473;51.552;6.716;2023-11-25T00:05:47;4.20;99.90
12817;DHT22;6473;51.552;6.716;2023-11-25T00:08:17;2.80;99.90
12817;DHT22;6473;51.552;6.716;2023-11-25T00:10:45;2.60;99.90
12817;DHT22;6473;51.552;6.716;2023-11-25T00:13:13;2.70;99.90
12817;DHT22;6473;51.552;6.716;2023-11-25T00:15:42;2.60;99.90
12817;DHT22;6473;51.552;6.716;2023-11-25T00:18:10;2.60;99.90
12817;DHT22;6473;51.552;6.716;2023-11-25T00:20:38;2.60;99.90
12817;DHT22;6473;51.552;6.716;2023-11-25T00:23:05;2.70;99.90
12817;DHT22;6473;51.552;6.716;2023-11-25T00:25:32;2.60;99.90
12817;DHT22;6473;51.552;6.716;2023-11-25T00:27:59;2.50;99.90
12817;DHT22;6473;51.552;6.716;2023-11-25T00:30:27;2.60;99.90
12817;DHT22;6473;51.552;6.716;2023-11-25T00:32:56;2.60;99.90
12817;DHT22;6473;51.552;6.716;2023-11-25T00:35:23;2.60;99.90
12817;DHT22;6473;51.552;6.716;2023-11-25T00:37:51;2.60;99.90
12817;DHT22;6473;51.552;6.716;2023-11-25T00:40:18;2.70;99.90
12817;DHT22;6473;51.552;6.716;2023-11-25T00:42:45;2.60;99.90
12817;DHT22;6473;51.552;6.716;2023-11-25T00:45:13;2.60;99.90
12817;DHT22;6473;51.552;6.716;2023-11-25T00:47:40;2.50;99.90
12817;DHT22;6473;51.552;6.716;2023-11-25T00:50:09;2.50;99.90
12817;DHT22;6473;51.552;6.716;2023-11-25T00:52:37;2.50;99.90
12817;DHT22;6473;51.552;6.716;2023-11-25T00:55:05;2.50;99.90
12817;DHT22;6473;51.552;6.716;2023-11-25T00:57:32;2.40;99.90
12817;DHT22;6473;51.552;6.716;2023-11-25T00:59:59;2.40;99.90
12817;DHT22;6473;51.552;6.716;2023-11-25T01:02:25;2.30;99.90
12817;DHT22;6473;51.552;6.716;2023-11-25T01:04:53;2.40;99.90
12817;DHT22;6473;51.552;6.716;2023-11-25T01:07:22;2.30;99.90
12817;DHT22;6473;51.552;6.716;2023-11-25T01:09:49;2.20;99.90
12817;DHT22;6473;51.552;6.716;2023-11-25T01:12:15;2.20;99.90
12817;DHT22;6473;51.552;6.716;2023-11-25T01:14:42;2.20;99.90
12817;DHT22;6473;51.552;6.716;2023-11-25T01:17:10;2.20;99.90
12817;DHT22;6473;51.552;6.716;2023-11-25T01:19:37;2.20;99.90
12817;DHT22;6473;51.552;6.716;2023-11-25T01:22:04;2.20;99.90
12817;DHT22;6473;51.552;6.716;2023-11-25T01:24:33;2.20;99.90
12817;DHT22;6473;51.552;6.716;2023-11-25T01:27:00;2.20;99.90
12817;DHT22;6473;51.552;6.716;2023-11-25T01:29:28;2.20;99.90
12817;DHT22;6473;51.552;6.716;2023-11-25T01:31:55;2.30;99.90
12817;DHT22;6473;51.552;6.716;2023-11-25T01:34:22;2.20;99.90
12817;DHT22;6473;51.552;6.716;2023-11-25T01:36:49;2.20;99.90
12817;DHT22;6473;51.552;6.716;2023-11-25T01:39:16;2.30;99.90
12817;DHT22;6473;51.552;6.716;2023-11-25T01:41:44;2.20;99.90
12817;DHT22;6473;51.552;6.716;2023-11-25T01:44:12;2.20;99.90
12817;DHT22;6473;51.552;6.716;2023-11-25T01:46:39;2.20;99.90
12817;DHT22;6473;51.552;6.716;2023-11-25T01:49:09;2.20;99.90
12817;DHT22;6473;51.552;6.716;2023-11-25T01:51:39;2.10;99.90
12817;DHT22;6473;51.552;6.716;2023-11-25T01:54:09;2.10;99.90
12817;DHT22;6473;51.552;6.716;2023-11-25T01:56:37;2.00;99.90
12817;DHT22;6473;51.552;6.716;2023-11-25T01:59:06;2.10;99.90
12817;DHT22;6473;51.552;6.716;2023-11-25T02:01:34;2.00;99.90
12817;DHT22;6473;51.552;6.716;2023-11-25T02:04:01;2.00;99.90
12817;DHT22;6473;51.552;6.716;2023-11-25T02:06:28;2.00;99.90
12817;DHT22;6473;51.552;6.716;2023-11-25T02:08:55;2.00;99.90
12817;DHT22;6473;51.552;6.716;2023-11-25T02:11:23;1.90;99.90
12817;DHT22;6473;51.552;6.716;2023-11-25T02:13:51;1.90;99.90
12817;DHT22;6473;51.552;6.716;2023-11-25T02:16:19;1.90;99.90
12817;DHT22;6473;51.552;6.716;2023-11-25T02:18:46;1.90;99.90
12817;DHT22;6473;51.552;6.716;2023-11-25T02:21:13;1.90;99.90
12817;DHT22;6473;51.552;6.716;2023-11-25T02:23:42;1.90;99.90
12817;DHT22;6473;51.552;6.716;2023-11-25T02:26:08;1.90;99.90
12817;DHT22;6473;51.552;6.716;2023-11-25T02:28:36;1.90;99.90
12817;DHT22;6473;51.552;6.716;2023-11-25T02:31:03;1.90;99.90
12817;DHT22;6473;51.552;6.716;2023-11-25T02:33:33;1.90;99.90
12817;DHT22;6473;51.552;6.716;2023-11-25T02:36:01;1.90;99.90
12817;DHT22;6473;51.552;6.716;2023-11-25T02:38:28;1.90;99.90
12817;DHT22;6473;51.552;6.716;2023-11-25T02:40:57;1.90;99.90
12817;DHT22;6473;51.552;6.716;2023-11-25T02:43:24;1.80;99.90
12817;DHT22;6473;51.552;6.716;2023-11-25T02:45:51;1.90;99.90
12817;DHT22;6473;51.552;6.716;2023-11-25T02:48:18;4.70;99.90
12817;DHT22;6473;51.552;6.716;2023-11-25T02:50:45;1.90;99.90
12817;DHT22;6473;51.552;6.716;2023-11-25T02:53:13;1.80;99.90
12817;DHT22;6473;51.552;6.716;2023-11-25T02:55:40;1.80;99.90
12817;DHT22;6473;51.552;6.716;2023-11-25T02:58:10;1.80;99.90
12817;DHT22;6473;51.552;6.716;2023-11-25T03:00:37;1.90;99.90
12817;DHT22;6473;51.552;6.716;2023-11-25T03:03:06;2.00;99.90
12817;DHT22;6473;51.552;6.716;2023-11-25T03:05:39;1.90;99.90
12817;DHT22;6473;51.552;6.716;2023-11-25T03:08:08;1.90;99.90
12817;DHT22;6473;51.552;6.716;2023-11-25T03:10:39;1.90;99.90
12817;DHT22;6473;51.552;6.716;2023-11-25T03:13:11;2.00;99.90
12817;DHT22;6473;51.552;6.716;2023-11-25T03:15:38;2.00;99.90
12817;DHT22;6473;51.552;6.716;2023-11-25T03:18:06;2.10;99.90
12817;DHT22;6473;51.552;6.716;2023-11-25T03:20:33;2.10;99.90
12817;DHT22;6473;51.552;6.716;2023-11-25T03:23:00;2.10;99.90
12817;DHT22;6473;51.552;6.716;2023-11-25T03:25:29;2.10;99.90
12817;DHT22;6473;51.552;6.716;2023-11-25T03:27:57;2.00;99.90
12817;DHT22;6473;51.552;6.716;2023-11-25T03:30:25;2.10;99.90
12817;DHT22;6473;51.552;6.716;2023-11-25T03:32:53;2.10;99.90
12817;DHT22;6473;51.552;6.716;2023-11-25T03:35:20;2.10;99.90
12817;DHT22;6473;51.552;6.716;2023-11-25T03:37:47;2.10;99.90
12817;DHT22;6473;51.552;6.716;2023-11-25T03:40:14;2.10;99.90
12817;DHT22;6473;51.552;6.716;2023-11-25T03:42:41;2.10;99.90
12817;DHT22;6473;51.552;6.716;2023-11-25T03:45:09;2.10;99.90
12817;DHT22;6473;51.552;6.716;2023-11-25T03:47:40;2.10;99.90
12817;DHT22;6473;51.552;6.716;2023-11-25T03:50:08;2.10;99.90
12817;DHT22;6473;51.552;6.716;2023-11-25T03:52:35;2.20;99.90
12817;DHT22;6473;51.552;6.716;2023-11-25T03:55:02;2.10;99.90
12817;DHT22;6473;51.552;6.716;2023-11-25T03:57:29;2.10;99.90
12817;DHT22;6473;51.552;6.716;2023-11-25T03:59:56;2.10;99.90
12817;DHT22;6473;51.552;6.716;2023-11-25T04:02:23;2.20;99.90
12817;DHT22;6473;51.552;6.716;2023-11-25T04:04:51;2.20;99.90
12817;DHT22;6473;51.552;6.716;2023-11-25T04:07:18;2.20;99.90
12817;DHT22;6473;51.552;6.716;2023-11-25T04:09:45;2.20;99.90
12817;DHT22;6473;51.552;6.716;2023-11-25T04:12:12;3.30;99.90
12817;DHT22;6473;51.552;6.716;2023-11-25T04:14:39;2.20;99.90
12817;DHT22;6473;51.552;6.716;2023-11-25T04:17:06;2.20;99.90
12817;DHT22;6473;51.552;6.716;2023-11-25T04:19:35;2.20;99.90
12817;DHT22;6473;51.552;6.716;2023-11-25T04:22:04;2.20;99.90
12817;DHT22;6473;51.552;6.716;2023-11-25T04:24:31;2.20;99.90
12817;DHT22;6473;51.552;6.716;2023-11-25T04:26:58;4.00;99.90
12817;DHT22;6473;51.552;6.716;2023-11-25T04:29:25;2.20;99.90
12817;DHT22;6473;51.552;6.716;2023-11-25T04:31:52;2.20;99.90
12817;DHT22;6473;51.552;6.716;2023-11-25T04:34:20;2.20;99.90
12817;DHT22;6473;51.552;6.716;2023-11-25T04:36:46;2.20;99.90
12817;DHT22;6473;51.552;6.716;2023-11-25T04:39:15;2.20;99.90
12817;DHT22;6473;51.552;6.716;2023-11-25T04:41:42;4.50;99.90
12817;DHT22;6473;51.552;6.716;2023-11-25T04:44:08;2.20;99.90
12817;DHT22;6473;51.552;6.716;2023-11-25T04:46:36;2.20;99.90
12817;DHT22;6473;51.552;6.716;2023-11-25T04:49:03;2.70;99.90
12817;DHT22;6473;51.552;6.716;2023-11-25T04:51:30;2.20;99.90
12817;DHT22;6473;51.552;6.716;2023-11-25T04:54:00;2.20;99.90
12817;DHT22;6473;51.552;6.716;2023-11-25T04:56:28;2.30;99.90
12817;DHT22;6473;51.552;6.716;2023-11-25T04:58:56;2.30;99.90
12817;DHT22;6473;51.552;6.716;2023-11-25T05:01:23;2.40;99.90
12817;DHT22;6473;51.552;6.716;2023-11-25T05:03:51;2.50;99.90
12817;DHT22;6473;51.552;6.716;2023-11-25T05:06:18;2.50;99.90
12817;DHT22;6473;51.552;6.716;2023-11-25T05:08:45;2.60;99.90
12817;DHT22;6473;51.552;6.716;2023-11-25T05:11:12;2.70;99.90
12817;DHT22;6473;51.552;6.716;2023-11-25T05:13:40;2.80;99.90
12817;DHT22;6473;51.552;6.716;2023-11-25T05:16:07;2.90;99.90
12817;DHT22;6473;51.552;6.716;2023-11-25T05:18:34;2.90;99.90
12817;DHT22;6473;51.552;6.716;2023-11-25T05:21:01;3.10;99.90
12817;DHT22;6473;51.552;6.716;2023-11-25T05:23:30;3.10;99.90
12817;DHT22;6473;51.552;6.716;2023-11-25T05:25:56;4.80;99.90
12817;DHT22;6473;51.552;6.716;2023-11-25T05:28:23;3.30;99.90
12817;DHT22;6473;51.552;6.716;2023-11-25T05:30:51;3.30;99.90
12817;DHT22;6473;51.552;6.716;2023-11-25T05:33:18;3.40;99.90
12817;DHT22;6473;51.552;6.716;2023-11-25T05:35:45;3.50;99.90
12817;DHT22;6473;51.552;6.716;2023-11-25T05:38:12;3.50;99.90
12817;DHT22;6473;51.552;6.716;2023-11-25T05:40:41;3.60;99.90
12817;DHT22;6473;51.552;6.716;2023-11-25T05:43:08;3.60;99.90
12817;DHT22;6473;51.552;6.716;2023-11-25T05:45:35;3.60;99.90
12817;DHT22;6473;51.552;6.716;2023-11-25T05:48:07;3.60;99.90
12817;DHT22;6473;51.552;6.716;2023-11-25T05:50:34;3.70;99.90
12817;DHT22;6473;51.552;6.716;2023-11-25T05:53:02;3.70;99.90
12817;DHT22;6473;51.552;6.716;2023-11-25T05:55:29;3.80;99.90
12817;DHT22;6473;51.552;6.716;2023-11-25T05:57:55;3.80;99.90
12817;DHT22;6473;51.552;6.716;2023-11-25T06:00:22;3.90;99.90
12817;DHT22;6473;51.552;6.716;2023-11-25T06:02:49;4.00;99.90
12817;DHT22;6473;51.552;6.716;2023-11-25T06:05:19;4.00;99.90
12817;DHT22;6473;51.552;6.716;2023-11-25T06:07:46;4.10;99.90
12817;DHT22;6473;51.552;6.716;2023-11-25T06:10:14;4.10;99.90
12817;DHT22;6473;51.552;6.716;2023-11-25T06:12:40;4.10;99.90
12817;DHT22;6473;51.552;6.716;2023-11-25T06:15:08;4.10;99.90
12817;DHT22;6473;51.552;6.716;2023-11-25T06:17:37;4.10;99.90
12817;DHT22;6473;51.552;6.716;2023-11-25T06:20:05;4.10;99.90
12817;DHT22;6473;51.552;6.716;2023-11-25T06:22:33;4.10;99.90
12817;DHT22;6473;51.552;6.716;2023-11-25T06:25:00;4.10;99.90
12817;DHT22;6473;51.552;6.716;2023-11-25T06:27:30;4.10;99.90
12817;DHT22;6473;51.552;6.716;2023-11-25T06:29:57;5.80;99.90
12817;DHT22;6473;51.552;6.716;2023-11-25T06:32:26;4.10;99.90
12817;DHT22;6473;51.552;6.716;2023-11-25T06:34:54;4.00;99.90
12817;DHT22;6473;51.552;6.716;2023-11-25T06:37:23;3.90;99.90
12817;DHT22;6473;51.552;6.716;2023-11-25T06:39:51;3.90;99.90
12817;DHT22;6473;51.552;6.716;2023-11-25T06:42:18;3.70;99.90
12817;DHT22;6473;51.552;6.716;2023-11-25T06:44:46;3.70;99.90
12817;DHT22;6473;51.552;6.716;2023-11-25T06:47:13;3.50;99.90
12817;DHT22;6473;51.552;6.716;2023-11-25T06:49:44;3.50;99.90
12817;DHT22;6473;51.552;6.716;2023-11-25T06:52:10;3.40;99.90
12817;DHT22;6473;51.552;6.716;2023-11-25T06:54:38;5.30;99.90
12817;DHT22;6473;51.552;6.716;2023-11-25T06:57:06;3.30;99.90
12817;DHT22;6473;51.552;6.716;2023-11-25T06:59:33;3.20;99.90
12817;DHT22;6473;51.552;6.716;2023-11-25T07:02:00;3.20;99.90
12817;DHT22;6473;51.552;6.716;2023-11-25T07:04:28;3.20;99.90
12817;DHT22;6473;51.552;6.716;2023-11-25T07:06:56;3.20;99.90
12817;DHT22;6473;51.552;6.716;2023-11-25T07:09:23;3.10;99.90
12817;DHT22;6473;51.552;6.716;2023-11-25T07:11:50;3.10;99.90
12817;DHT22;6473;51.552;6.716;2023-11-25T07:14:18;3.10;99.90
12817;DHT22;6473;51.552;6.716;2023-11-25T07:16:47;3.10;99.90
12817;DHT22;6473;51.552;6.716;2023-11-25T07:19:15;3.10;99.90
12817;DHT22;6473;51.552;6.716;2023-11-25T07:21:42;3.10;99.90
12817;DHT22;6473;51.552;6.716;2023-11-25T07:24:09;3.10;99.90
12817;DHT22;6473;51.552;6.716;2023-11-25T07:26:37;3.20;99.90
12817;DHT22;6473;51.552;6.716;2023-11-25T07:29:08;3.10;99.90
12817;DHT22;6473;51.552;6.716;2023-11-25T07:31:37;3.10;99.90
12817;DHT22;6473;51.552;6.716;2023-11-25T07:34:04;3.20;99.90
12817;DHT22;6473;51.552;6.716;2023-11-25T07:36:31;3.20;99.90
12817;DHT22;6473;51.552;6.716;2023-11-25T07:38:58;3.40;99.90
12817;DHT22;6473;51.552;6.716;2023-11-25T07:41:25;3.40;99.90
12817;DHT22;6473;51.552;6.716;2023-11-25T07:43:52;3.40;99.90
12817;DHT22;6473;51.552;6.716;2023-11-25T07:46:19;3.50;99.90
12817;DHT22;6473;51.552;6.716;2023-11-25T07:48:46;3.60;99.90
12817;DHT22;6473;51.552;6.716;2023-11-25T07:51:13;3.80;99.90
12817;DHT22;6473;51.552;6.716;2023-11-25T07:53:40;3.80;99.90
12817;DHT22;6473;51.552;6.716;2023-11-25T07:56:07;3.80;99.90
12817;DHT22;6473;51.552;6.716;2023-11-25T07:58:33;3.90;99.90
12817;DHT22;6473;51.552;6.716;2023-11-25T08:01:00;3.90;99.90
12817;DHT22;6473;51.552;6.716;2023-11-25T08:03:27;4.10;99.90
12817;DHT22;6473;51.552;6.716;2023-11-25T08:05:55;4.00;99.90
12817;DHT22;6473;51.552;6.716;2023-11-25T08:08:22;4.00;99.90
12817;DHT22;6473;51.552;6.716;2023-11-25T08:10:50;4.10;99.90
12817;DHT22;6473;51.552;6.716;2023-11-25T08:13:17;4.10;99.90
12817;DHT22;6473;51.552;6.716;2023-11-25T08:15:45;4.10;99.90
12817;DHT22;6473;51.552;6.716;2023-11-25T08:18:12;4.10;99.90
12817;DHT22;6473;51.552;6.716;2023-11-25T08:20:41;6.30;99.90
12817;DHT22;6473;51.552;6.716;2023-11-25T08:23:09;4.20;99.90
12817;DHT22;6473;51.552;6.716;2023-11-25T08:25:36;4.30;99.90
12817;DHT22;6473;51.552;6.716;2023-11-25T08:28:03;4.40;99.90
12817;DHT22;6473;51.552;6.716;2023-11-25T08:30:30;4.40;99.90
12817;DHT22;6473;51.552;6.716;2023-11-25T08:32:57;4.50;99.90
12817;DHT22;6473;51.552;6.716;2023-11-25T08:35:25;4.50;99.90
12817;DHT22;6473;51.552;6.716;2023-11-25T08:37:52;4.50;99.90
12817;DHT22;6473;51.552;6.716;2023-11-25T08:40:20;4.60;99.90
12817;DHT22;6473;51.552;6.716;2023-11-25T08:42:47;5.50;99.90
12817;DHT22;6473;51.552;6.716;2023-11-25T08:45:15;4.50;99.90
12817;DHT22;6473;51.552;6.716;2023-11-25T08:47:42;4.50;99.90
12817;DHT22;6473;51.552;6.716;2023-11-25T08:50:10;4.50;99.90
12817;DHT22;6473;51.552;6.716;2023-11-25T08:52:41;4.50;99.90
12817;DHT22;6473;51.552;6.716;2023-11-25T08:55:09;4.50;99.90
12817;DHT22;6473;51.552;6.716;2023-11-25T08:57:37;4.60;99.90
12817;DHT22;6473;51.552;6.716;2023-11-25T09:00:06;4.80;99.90
12817;DHT22;6473;51.552;6.716;2023-11-25T09:02:40;4.90;99.90
12817;DHT22;6473;51.552;6.716;2023-11-25T09:05:07;5.10;99.90
12817;DHT22;6473;51.552;6.716;2023-11-25T09:07:34;5.30;99.90
12817;DHT22;6473;51.552;6.716;2023-11-25T09:10:01;5.40;99.90
12817;DHT22;6473;51.552;6.716;2023-11-25T09:12:30;5.40;99.90
12817;DHT22;6473;51.552;6.716;2023-11-25T09:14:59;5.40;99.90
12817;DHT22;6473;51.552;6.716;2023-11-25T09:17:28;5.30;99.90
12817;DHT22;6473;51.552;6.716;2023-11-25T09:19:55;5.50;99.90
12817;DHT22;6473;51.552;6.716;2023-11-25T09:22:22;7.60;99.90
12817;DHT22;6473;51.552;6.716;2023-11-25T09:24:49;6.10;99.90
12817;DHT22;6473;51.552;6.716;2023-11-25T09:27:16;6.40;99.90
12817;DHT22;6473;51.552;6.716;2023-11-25T09:29:43;6.40;99.90
12817;DHT22;6473;51.552;6.716;2023-11-25T09:32:13;6.50;99.90
12817;DHT22;6473;51.552;6.716;2023-11-25T09:34:40;6.60;99.90
12817;DHT22;6473;51.552;6.716;2023-11-25T09:37:07;7.50;99.90
12817;DHT22;6473;51.552;6.716;2023-11-25T09:39:34;6.90;99.90
12817;DHT22;6473;51.552;6.716;2023-11-25T09:42:01;7.10;99.90
12817;DHT22;6473;51.552;6.716;2023-11-25T09:44:28;7.30;99.90
12817;DHT22;6473;51.552;6.716;2023-11-25T09:46:56;7.30;99.90
12817;DHT22;6473;51.552;6.716;2023-11-25T09:49:24;7.10;99.90
12817;DHT22;6473;51.552;6.716;2023-11-25T09:51:51;7.30;99.90
12817;DHT22;6473;51.552;6.716;2023-11-25T09:54:21;7.60;99.90
12817;DHT22;6473;51.552;6.716;2023-11-25T09:56:50;10.10;99.90
12817;DHT22;6473;51.552;6.716;2023-11-25T09:59:18;7.70;99.90
12817;DHT22;6473;51.552;6.716;2023-11-25T10:05:57;8.20;99.90
12817;DHT22;6473;51.552;6.716;2023-11-25T10:08:24;8.10;99.90
12817;DHT22;6473;51.552;6.716;2023-11-25T10:10:59;7.90;99.90
12817;DHT22;6473;51.552;6.716;2023-11-25T10:13:31;7.70;99.90
12817;DHT22;6473;51.552;6.716;2023-11-25T10:15:58;7.60;99.90
12817;DHT22;6473;51.552;6.716;2023-11-25T10:18:26;7.50;99.90
12817;DHT22;6473;51.552;6.716;2023-11-25T10:20:54;7.40;99.90
12817;DHT22;6473;51.552;6.716;2023-11-25T10:23:26;7.30;99.90
12817;DHT22;6473;51.552;6.716;2023-11-25T10:25:55;7.10;99.90
12817;DHT22;6473;51.552;6.716;2023-11-25T10:28:25;7.20;99.90
12817;DHT22;6473;51.552;6.716;2023-11-25T10:30:54;7.30;99.90
12817;DHT22;6473;51.552;6.716;2023-11-25T10:33:22;9.80;99.90
12817;DHT22;6473;51.552;6.716;2023-11-25T10:35:50;6.70;99.90
12817;DHT22;6473;51.552;6.716;2023-11-25T10:38:18;6.70;99.90
12817;DHT22;6473;51.552;6.716;2023-11-25T10:40:49;6.80;99.90
12817;DHT22;6473;51.552;6.716;2023-11-25T10:43:16;6.90;99.90
12817;DHT22;6473;51.552;6.716;2023-11-25T10:45:43;7.10;99.90
12817;DHT22;6473;51.552;6.716;2023-11-25T10:48:11;7.10;99.90
12817;DHT22;6473;51.552;6.716;2023-11-25T10:50:40;7.50;99.90
12817;DHT22;6473;51.552;6.716;2023-11-25T10:53:12;7.10;99.90
12817;DHT22;6473;51.552;6.716;2023-11-25T10:55:40;8.90;99.90
12817;DHT22;6473;51.552;6.716;2023-11-25T10:58:10;8.10;99.90
12817;DHT22;6473;51.552;6.716;2023-11-25T11:00:37;6.90;99.90
12817;DHT22;6473;51.552;6.716;2023-11-25T11:03:08;6.90;99.90
12817;DHT22;6473;51.552;6.716;2023-11-25T11:05:40;7.00;99.90
12817;DHT22;6473;51.552;6.716;2023-11-25T11:08:15;8.90;99.90
12817;DHT22;6473;51.552;6.716;2023-11-25T11:10:47;7.00;99.90
12817;DHT22;6473;51.552;6.716;2023-11-25T11:13:22;7.00;99.90
12817;DHT22;6473;51.552;6.716;2023-11-25T11:17:13;7.10;99.90
12817;DHT22;6473;51.552;6.716;2023-11-25T11:19:43;7.00;99.90
12817;DHT22;6473;51.552;6.716;2023-11-25T11:22:12;7.00;99.90
12817;DHT22;6473;51.552;6.716;2023-11-25T11:24:52;6.90;99.90
12817;DHT22;6473;51.552;6.716;2023-11-25T11:27:29;6.80;99.90
12817;DHT22;6473;51.552;6.716;2023-11-25T11:30:06;6.80;99.90
12817;DHT22;6473;51.552;6.716;2023-11-25T11:32:36;6.80;99.90
12817;DHT22;6473;51.552;6.716;2023-11-25T11:35:06;6.90;99.90
12817;DHT22;6473;51.552;6.716;2023-11-25T11:37:46;6.90;99.90
12817;DHT22;6473;51.552;6.716;2023-11-25T11:40:13;6.80;99.90
12817;DHT22;6473;51.552;6.716;2023-11-25T11:42:40;7.10;99.90
12817;DHT22;6473;51.552;6.716;2023-11-25T11:45:10;7.00;99.90
12817;DHT22;6473;51.552;6.716;2023-11-25T11:47:51;8.90;99.90
12817;DHT22;6473;51.552;6.716;2023-11-25T11:50:19;9.20;99.90
12817;DHT22;6473;51.552;6.716;2023-11-25T11:52:48;6.90;99.90
12817;DHT22;6473;51.552;6.716;2023-11-25T11:55:35;6.90;99.90
12817;DHT22;6473;51.552;6.716;2023-11-25T11:58:08;7.10;99.90
12817;DHT22;6473;51.552;6.716;2023-11-25T12:00:39;7.20;99.90
12817;DHT22;6473;51.552;6.716;2023-11-25T12:18:12;7.60;99.90
12817;DHT22;6473;51.552;6.716;2023-11-25T12:25:05;7.60;99.90
12817;DHT22;6473;51.552;6.716;2023-11-25T12:27:58;5.90;99.90
12817;DHT22;6473;51.552;6.716;2023-11-25T12:30:30;7.50;99.90
12817;DHT22;6473;51.552;6.716;2023-11-25T12:33:00;7.40;99.90
12817;DHT22;6473;51.552;6.716;2023-11-25T12:35:28;7.40;99.90
12817;DHT22;6473;51.552;6.716;2023-11-25T12:37:55;7.30;99.90
12817;DHT22;6473;51.552;6.716;2023-11-25T12:40:34;7.30;99.90
12817;DHT22;6473;51.552;6.716;2023-11-25T12:43:05;7.60;99.90
12817;DHT22;6473;51.552;6.716;2023-11-25T12:45:33;7.30;99.90
12817;DHT22;6473;51.552;6.716;2023-11-25T12:51:55;7.30;99.90
12817;DHT22;6473;51.552;6.716;2023-11-25T12:57:46;7.20;99.90
12817;DHT22;6473;51.552;6.716;2023-11-25T13:00:14;7.20;99.90
12817;DHT22;6473;51.552;6.716;2023-11-25T13:02:44;7.10;99.90
12817;DHT22;6473;51.552;6.716;2023-11-25T13:05:18;7.10;99.90
12817;DHT22;6473;51.552;6.716;2023-11-25T13:07:50;8.30;99.90
12817;DHT22;6473;51.552;6.716;2023-11-25T13:10:19;7.00;99.90
12817;DHT22;6473;51.552;6.716;2023-11-25T13:12:46;6.90;99.90
12817;DHT22;6473;51.552;6.716;2023-11-25T13:15:14;6.80;99.90
12817;DHT22;6473;51.552;6.716;2023-11-25T13:17:41;6.70;99.90
12817;DHT22;6473;51.552;6.716;2023-11-25T13:20:08;7.90;99.90
12817;DHT22;6473;51.552;6.716;2023-11-25T13:22:36;6.50;99.90
12817;DHT22;6473;51.552;6.716;2023-11-25T13:25:05;8.40;99.90
12817;DHT22;6473;51.552;6.716;2023-11-25T13:27:33;6.40;99.90
12817;DHT22;6473;51.552;6.716;2023-11-25T13:30:00;6.50;99.90
12817;DHT22;6473;51.552;6.716;2023-11-25T13:32:27;6.40;99.90
12817;DHT22;6473;51.552;6.716;2023-11-25T13:34:54;6.40;99.90
12817;DHT22;6473;51.552;6.716;2023-11-25T13:37:21;6.40;99.90
12817;DHT22;6473;51.552;6.716;2023-11-25T13:43:44;6.50;99.90
12817;DHT22;6473;51.552;6.716;2023-11-25T13:46:11;6.70;99.90
12817;DHT22;6473;51.552;6.716;2023-11-25T13:48:38;6.80;99.90
12817;DHT22;6473;51.552;6.716;2023-11-25T13:51:16;7.10;99.90
12817;DHT22;6473;51.552;6.716;2023-11-25T13:53:43;7.80;99.90
12817;DHT22;6473;51.552;6.716;2023-11-25T13:56:12;7.30;99.90
12817;DHT22;6473;51.552;6.716;2023-11-25T13:59:11;7.10;99.90
12817;DHT22;6473;51.552;6.716;2023-11-25T14:09:44;6.60;99.90
12817;DHT22;6473;51.552;6.716;2023-11-25T14:12:12;6.60;99.90
12817;DHT22;6473;51.552;6.716;2023-11-25T14:14:40;6.60;99.90
12817;DHT22;6473;51.552;6.716;2023-11-25T14:17:07;8.10;99.90
12817;DHT22;6473;51.552;6.716;2023-11-25T14:19:36;6.60;99.90
12817;DHT22;6473;51.552;6.716;2023-11-25T14:22:04;6.70;99.90
12817;DHT22;6473;51.552;6.716;2023-11-25T14:24:31;6.60;99.90
12817;DHT22;6473;51.552;6.716;2023-11-25T14:26:58;6.70;99.90
12817;DHT22;6473;51.552;6.716;2023-11-25T14:29:26;6.70;99.90
12817;DHT22;6473;51.552;6.716;2023-11-25T14:31:54;6.80;99.90
12817;DHT22;6473;51.552;6.716;2023-11-25T14:34:21;6.80;99.90
12817;DHT22;6473;51.552;6.716;2023-11-25T14:36:48;6.70;99.90
12817;DHT22;6473;51.552;6.716;2023-11-25T14:39:15;6.60;99.90
12817;DHT22;6473;51.552;6.716;2023-11-25T14:41:44;6.60;99.90
12817;DHT22;6473;51.552;6.716;2023-11-25T14:44:13;6.40;99.90
12817;DHT22;6473;51.552;6.716;2023-11-25T14:46:40;7.70;99.90
12817;DHT22;6473;51.552;6.716;2023-11-25T14:49:08;6.40;99.90
12817;DHT22;6473;51.552;6.716;2023-11-25T14:51:35;6.50;99.90
12817;DHT22;6473;51.552;6.716;2023-11-25T14:54:02;7.90;99.90
12817;DHT22;6473;51.552;6.716;2023-11-25T14:56:29;6.50;99.90
12817;DHT22;6473;51.552;6.716;2023-11-25T14:58:58;6.60;99.90
12817;DHT22;6473;51.552;6.716;2023-11-25T15:01:25;6.50;99.90
12817;DHT22;6473;51.552;6.716;2023-11-25T15:03:52;6.50;99.90
12817;DHT22;6473;51.552;6.716;2023-11-25T15:06:22;6.40;99.90
12817;DHT22;6473;51.552;6.716;2023-11-25T15:08:51;6.40;99.90
12817;DHT22;6473;51.552;6.716;2023-11-25T15:11:18;6.50;99.90
12817;DHT22;6473;51.552;6.716;2023-11-25T15:13:44;6.60;99.90
12817;DHT22;6473;51.552;6.716;2023-11-25T15:16:13;6.50;99.90
12817;DHT22;6473;51.552;6.716;2023-11-25T15:18:41;6.50;99.90
12817;DHT22;6473;51.552;6.716;2023-11-25T15:21:08;6.60;99.90
12817;DHT22;6473;51.552;6.716;2023-11-25T15:23:37;9.00;99.90
12817;DHT22;6473;51.552;6.716;2023-11-25T15:26:06;6.50;99.90
12817;DHT22;6473;51.552;6.716;2023-11-25T15:28:33;6.50;99.90
12817;DHT22;6473;51.552;6.716;2023-11-25T15:31:00;6.50;99.90
12817;DHT22;6473;51.552;6.716;2023-11-25T15:33:27;6.50;99.90
12817;DHT22;6473;51.552;6.716;2023-11-25T15:35:53;6.50;99.90
12817;DHT22;6473;51.552;6.716;2023-11-25T15:38:20;8.40;99.90
12817;DHT22;6473;51.552;6.716;2023-11-25T15:40:48;6.40;99.90
12817;DHT22;6473;51.552;6.716;2023-11-25T15:43:15;6.50;99.90
12817;DHT22;6473;51.552;6.716;2023-11-25T15:45:42;6.50;99.90
12817;DHT22;6473;51.552;6.716;2023-11-25T15:48:11;6.40;99.90
12817;DHT22;6473;51.552;6.716;2023-11-25T15:50:38;7.80;99.90
12817;DHT22;6473;51.552;6.716;2023-11-25T15:53:05;6.30;99.90
12817;DHT22;6473;51.552;6.716;2023-11-25T15:55:34;7.50;99.90
12817;DHT22;6473;51.552;6.716;2023-11-25T15:58:02;6.20;99.90
12817;DHT22;6473;51.552;6.716;2023-11-25T16:00:29;7.40;99.90
12817;DHT22;6473;51.552;6.716;2023-11-25T16:02:56;6.30;99.90
12817;DHT22;6473;51.552;6.716;2023-11-25T16:05:23;6.10;99.90
12817;DHT22;6473;51.552;6.716;2023-11-25T16:07:50;7.50;99.90
12817;DHT22;6473;51.552;6.716;2023-11-25T16:10:17;9.10;99.90
12817;DHT22;6473;51.552;6.716;2023-11-25T16:12:44;6.10;99.90
12817;DHT22;6473;51.552;6.716;2023-11-25T16:15:12;6.10;99.90
12817;DHT22;6473;51.552;6.716;2023-11-25T16:17:40;6.00;99.90
12817;DHT22;6473;51.552;6.716;2023-11-25T16:20:08;6.20;99.90
12817;DHT22;6473;51.552;6.716;2023-11-25T16:22:35;6.00;99.90
12817;DHT22;6473;51.552;6.716;2023-11-25T16:25:03;6.00;99.90
12817;DHT22;6473;51.552;6.716;2023-11-25T16:27:31;6.10;99.90
12817;DHT22;6473;51.552;6.716;2023-11-25T16:29:58;5.90;99.90
12817;DHT22;6473;51.552;6.716;2023-11-25T16:32:27;5.70;99.90
12817;DHT22;6473;51.552;6.716;2023-11-25T16:34:54;5.70;99.90
12817;DHT22;6473;51.552;6.716;2023-11-25T16:37:21;5.50;99.90
12817;DHT22;6473;51.552;6.716;2023-11-25T16:39:48;5.40;99.90
12817;DHT22;6473;51.552;6.716;2023-11-25T16:42:15;5.30;99.90
12817;DHT22;6473;51.552;6.716;2023-11-25T16:44:42;5.30;99.90
12817;DHT22;6473;51.552;6.716;2023-11-25T16:47:10;5.30;99.90
12817;DHT22;6473;51.552;6.716;2023-11-25T16:49:38;5.20;99.90
12817;DHT22;6473;51.552;6.716;2023-11-25T16:52:05;5.20;99.90